Time;durP1;ratioP1;P1;durP2;ratioP2;P2;SDS_P1;SDS_P2;PMS_P1;PMS_P2;Temp;Humidity;BMP_temperature;BMP_pressure;BME280_temperature;BME280_humidity;BME280_pressure;Samples;Min_cycle;Max_cycle;Signal;HPM_P1;HPM_P2
2022/04/03 00:01:10;;;;;;;3.93;2.80;;;0.80;99.90;;;;;;5096209;28;20175;-41
2022/04/03 00:03:36;;;;;;;6.17;2.80;;;0.80;99.90;;;;;;5096708;28;20250;-41
2022/04/03 00:06:01;;;;;;;9.60;3.93;;;0.80;99.90;;;;;;5096908;28;20203;-41
2022/04/03 00:08:28;;;;;;;10.83;3.60;;;0.80;99.90;;;;;;5097017;28;20236;-39
2022/04/03 00:10:54;;;;;;;3.60;2.57;;;0.80;99.90;;;;;;5097732;28;20182;-41
2022/04/03 00:13:20;;;;;;;6.50;2.60;;;0.80;99.90;;;;;;5079777;28;20804;-41
2022/04/03 00:15:46;;;;;;;4.30;2.43;;;0.80;99.90;;;;;;5098210;28;20471;-39
2022/04/03 00:18:11;;;;;;;3.27;2.40;;;0.80;99.90;;;;;;5096220;28;20178;-41
2022/04/03 00:20:39;;;;;;;5.33;2.87;;;0.70;99.90;;;;;;5095550;28;20216;-39
2022/04/03 00:23:06;;;;;;;4.40;2.60;;;0.70;99.90;;;;;;5095328;28;20312;-39
2022/04/03 00:25:32;;;;;;;3.47;2.27;;;0.70;99.90;;;;;;5095358;28;20519;-39
2022/04/03 00:27:58;;;;;;;5.30;2.83;;;0.70;99.90;;;;;;5095116;28;20875;-39
2022/04/03 00:30:24;;;;;;;4.57;2.10;;;0.70;99.90;;;;;;5095268;28;20460;-41
2022/04/03 00:32:49;;;;;;;3.10;2.30;;;0.60;99.90;;;;;;5095322;28;20186;-41
2022/04/03 00:35:16;;;;;;;4.30;2.20;;;0.60;99.90;;;;;;5095243;28;20565;-40
2022/04/03 00:37:42;;;;;;;5.30;2.60;;;0.60;99.90;;;;;;5095693;28;20200;-39
2022/04/03 00:40:09;;;;;;;4.83;2.60;;;0.50;99.90;;;;;;5095616;28;20468;-38
2022/04/03 00:42:37;;;;;;;4.07;2.60;;;0.50;99.90;;;;;;5095265;28;20417;-38
2022/04/03 00:45:05;;;;;;;4.60;2.70;;;0.50;99.90;;;;;;5094922;28;20455;-39
2022/04/03 00:47:31;;;;;;;3.93;2.80;;;0.40;99.90;;;;;;5094713;28;20453;-38
2022/04/03 00:49:57;;;;;;;3.50;2.70;;;0.40;99.90;;;;;;5094743;28;20496;-41
2022/04/03 00:52:24;;;;;;;4.07;2.50;;;0.40;99.90;;;;;;5095880;28;20480;-38
2022/04/03 00:54:51;;;;;;;3.20;2.23;;;0.30;99.90;;;;;;5077147;28;20456;-39
2022/04/03 00:57:18;;;;;;;3.43;2.10;;;0.30;99.90;;;;;;5094473;28;20439;-38
2022/04/03 00:59:44;;;;;;;4.47;2.87;;;0.30;99.90;;;;;;5094879;28;20840;-39
2022/04/03 01:02:10;;;;;;;2.13;1.77;;;0.30;99.90;;;;;;5094650;28;20405;-40
2022/04/03 01:04:37;;;;;;;3.10;1.97;;;0.30;99.90;;;;;;5095337;28;20424;-38
2022/04/03 01:07:03;;;;;;;3.30;2.27;;;0.30;99.90;;;;;;5094741;28;20187;-39
2022/04/03 01:09:29;;;;;;;5.33;2.57;;;0.30;99.90;;;;;;5094786;28;20412;-39
2022/04/03 01:11:56;;;;;;;4.17;2.43;;;0.30;99.90;;;;;;5095242;28;20405;-38
2022/04/03 01:14:35;;;;;;;5.13;2.50;;;0.30;99.90;;;;;;5095645;28;20224;-41
2022/04/03 01:17:02;;;;;;;3.53;2.30;;;0.30;99.90;;;;;;5094328;28;20993;-40
2022/04/03 01:19:28;;;;;;;3.43;2.43;;;0.30;99.90;;;;;;5094493;28;20420;-42
2022/04/03 01:21:54;;;;;;;2.80;1.93;;;0.30;99.90;;;;;;5097553;28;20409;-44
2022/04/03 01:24:21;;;;;;;5.43;2.17;;;0.20;99.90;;;;;;5098702;28;20504;-45
2022/04/03 01:26:48;;;;;;;2.67;2.00;;;0.20;99.90;;;;;;5079716;28;20573;-44
2022/04/03 01:29:15;;;;;;;3.53;2.60;;;0.20;99.90;;;;;;5098316;28;20448;-44
2022/04/03 01:31:41;;;;;;;4.23;2.20;;;0.20;99.90;;;;;;5098490;28;20413;-44
2022/04/03 01:34:07;;;;;;;5.17;2.20;;;0.20;99.90;;;;;;5098286;28;20932;-45
2022/04/03 01:36:32;;;;;;;2.90;1.87;;;0.20;99.90;;;;;;5098624;28;20206;-45
2022/04/03 01:38:58;;;;;;;3.87;2.50;;;0.20;99.90;;;;;;5097920;28;20213;-46
2022/04/03 01:41:24;;;;;;;3.03;1.90;;;0.10;99.90;;;;;;5098012;28;20216;-44
2022/04/03 01:43:49;;;;;;;3.37;2.07;;;0.10;99.90;;;;;;5098399;28;20167;-44
2022/04/03 01:46:15;;;;;;;6.17;2.07;;;0.10;99.90;;;;;;5097401;28;20612;-46
2022/04/03 01:48:41;;;;;;;4.00;2.33;;;0.10;99.90;;;;;;5096632;28;20247;-44
2022/04/03 01:51:07;;;;;;;3.77;1.90;;;0.00;99.90;;;;;;5096421;28;20167;-45
2022/04/03 01:53:32;;;;;;;2.97;1.83;;;0.00;99.90;;;;;;5096801;28;20179;-45
2022/04/03 01:56:03;;;;;;;4.70;2.20;;;0.00;99.90;;;;;;5078127;28;20214;-45
2022/04/03 01:58:30;;;;;;;4.00;2.90;;;0.00;99.90;;;;;;5096612;28;20170;-46
2022/04/03 02:00:56;;;;;;;8.40;2.50;;;-0.10;99.90;;;;;;5097239;28;20416;-44
2022/04/03 02:03:22;;;;;;;4.60;2.17;;;-0.20;99.90;;;;;;5099772;28;20409;-45
2022/04/03 02:05:48;;;;;;;3.10;2.13;;;-0.20;99.90;;;;;;5100312;28;20815;-43
2022/04/03 02:08:14;;;;;;;8.37;2.50;;;-0.30;99.90;;;;;;5100042;28;20417;-42
2022/04/03 02:10:39;;;;;;;4.43;2.10;;;-0.30;99.90;;;;;;5100393;28;20175;-45
2022/04/03 02:13:05;;;;;;;6.40;2.27;;;-0.30;99.90;;;;;;5100380;28;20175;-45
2022/04/03 02:15:31;;;;;;;4.50;2.23;;;-0.40;99.90;;;;;;5099985;28;20202;-43
2022/04/03 02:17:57;;;;;;;4.47;2.20;;;-0.50;99.90;;;;;;5100066;28;20174;-43
2022/04/03 02:20:22;;;;;;;5.83;2.13;;;-0.50;99.90;;;;;;5099998;28;20182;-45
2022/04/03 02:22:48;;;;;;;4.93;2.73;;;-0.50;99.90;;;;;;5099810;28;20182;-46
2022/04/03 02:25:14;;;;;;;3.50;2.50;;;-0.60;99.90;;;;;;5080111;28;20179;-45
2022/04/03 02:27:43;;;;;;;3.73;2.60;;;-0.60;99.90;;;;;;5097825;28;20651;-44
2022/04/03 02:30:09;;;;;;;5.40;2.57;;;-0.60;99.90;;;;;;5100121;28;20186;-44
2022/04/03 02:32:36;;;;;;;6.80;3.13;;;-0.70;99.90;;;;;;5083327;28;20925;-45
2022/04/03 02:35:04;;;;;;;6.93;3.40;;;-0.70;99.90;;;;;;5100802;28;20459;-45
2022/04/03 02:37:30;;;;;;;4.60;2.90;;;-0.70;99.90;;;;;;5101870;28;20504;-45
2022/04/03 02:39:56;;;;;;;4.97;2.73;;;-0.80;99.90;;;;;;5100380;28;20953;-45
2022/04/03 02:42:22;;;;;;;5.73;2.80;;;-0.80;99.90;;;;;;5102035;28;20234;-44
2022/04/03 02:44:47;;;;;;;8.93;2.90;;;-0.80;99.90;;;;;;5102331;28;20177;-40
2022/04/03 02:47:14;;;;;;;3.53;2.60;;;-0.80;99.90;;;;;;5096933;28;20786;-42
2022/04/03 02:49:39;;;;;;;9.93;2.60;;;-0.80;99.90;;;;;;5096820;28;20254;-40
2022/04/03 02:52:05;;;;;;;3.97;2.13;;;-0.80;99.90;;;;;;5078899;28;20508;-39
2022/04/03 02:54:31;;;;;;;4.77;2.03;;;-0.90;99.90;;;;;;5097095;28;20190;-38
2022/04/03 02:56:57;;;;;;;4.60;2.67;;;-0.80;99.90;;;;;;5097573;28;20445;-40
2022/04/03 02:59:23;;;;;;;3.37;2.40;;;-0.90;99.90;;;;;;5078401;28;20409;-40
2022/04/03 03:01:48;;;;;;;3.10;2.03;;;-0.90;99.90;;;;;;5096831;28;20533;-39
2022/04/03 03:04:14;;;;;;;3.03;2.13;;;-0.90;99.90;;;;;;5096727;28;20220;-41
2022/04/03 03:06:40;;;;;;;3.83;1.90;;;-0.90;99.90;;;;;;5097072;28;20631;-40
2022/04/03 03:09:06;;;;;;;4.73;2.10;;;-1.00;99.90;;;;;;5096741;28;20448;-39
2022/04/03 03:11:31;;;;;;;4.03;2.30;;;-1.00;99.90;;;;;;5096871;28;20225;-40
2022/04/03 03:13:57;;;;;;;3.77;2.10;;;-1.00;99.90;;;;;;5096638;28;20262;-40
2022/04/03 03:16:23;;;;;;;3.97;2.80;;;-1.10;99.90;;;;;;5096374;28;20211;-40
2022/04/03 03:18:48;;;;;;;6.03;2.20;;;-1.10;99.90;;;;;;5078240;28;20225;-40
2022/04/03 03:21:15;;;;;;;3.50;2.17;;;-1.10;99.90;;;;;;5096639;28;20178;-39
2022/04/03 03:23:41;;;;;;;4.40;2.33;;;-1.10;99.90;;;;;;5078205;28;20200;-40
2022/04/03 03:26:07;;;;;;;6.07;2.13;;;-1.10;99.90;;;;;;5097545;28;20432;-41
2022/04/03 03:28:33;;;;;;;4.03;2.00;;;-1.20;99.90;;;;;;5096598;28;20232;-41
2022/04/03 03:30:58;;;;;;;2.83;1.90;;;-1.20;99.90;;;;;;5098269;28;20781;-40
2022/04/03 03:33:24;;;;;;;4.80;1.90;;;-1.20;99.90;;;;;;5099533;28;20171;-42
2022/04/03 03:35:50;;;;;;;5.80;2.67;;;-1.20;99.90;;;;;;5098862;28;20576;-40
2022/04/03 03:38:15;;;;;;;2.10;1.90;;;-1.20;99.90;;;;;;5098683;28;20635;-40
2022/04/03 03:40:41;;;;;;;5.60;2.30;;;-1.20;99.90;;;;;;5096238;28;20166;-39
2022/04/03 03:43:09;;;;;;;5.20;2.40;;;-1.30;99.90;;;;;;5096448;28;20624;-40
2022/04/03 03:45:35;;;;;;;7.00;1.97;;;-1.30;99.90;;;;;;5096138;28;20240;-40
2022/04/03 03:48:01;;;;;;;5.30;2.43;;;-1.30;99.90;;;;;;5096965;28;20570;-40
2022/04/03 03:50:26;;;;;;;3.73;1.90;;;-1.40;99.90;;;;;;5096085;28;20917;-41
2022/04/03 03:52:52;;;;;;;3.73;2.23;;;-1.50;99.90;;;;;;5095841;28;20269;-40
2022/04/03 03:55:18;;;;;;;2.20;1.90;;;-1.50;99.90;;;;;;5096104;28;20211;-39
2022/04/03 03:57:44;;;;;;;4.17;2.23;;;-1.60;99.90;;;;;;5095864;28;20179;-39
2022/04/03 04:00:11;;;;;;;7.67;2.10;;;-1.60;99.90;;;;;;5095703;28;20209;-40
2022/04/03 04:02:37;;;;;;;3.60;2.20;;;-1.70;99.90;;;;;;5095825;28;20416;-39
2022/04/03 04:05:03;;;;;;;2.83;2.23;;;-1.80;99.90;;;;;;5095624;28;20415;-39
2022/04/03 04:07:45;;;;;;;4.13;2.60;;;-1.80;99.90;;;;;;5095558;28;20236;-39
2022/04/03 04:10:16;;;;;;;5.50;2.30;;;-1.90;99.90;;;;;;5095368;28;20412;-38
2022/04/03 04:12:43;;;;;;;3.90;2.30;;;-1.90;99.90;;;;;;5095284;28;20408;-38
2022/04/03 04:15:10;;;;;;;3.87;2.17;;;-2.00;99.90;;;;;;5076966;28;20829;-38
2022/04/03 04:17:44;;;;;;;4.10;2.30;;;-2.00;99.90;;;;;;5095263;28;20408;-39
2022/04/03 04:20:12;;;;;;;5.87;2.67;;;-2.00;99.90;;;;;;5095490;28;20401;-38
2022/04/03 04:22:39;;;;;;;2.50;2.10;;;-2.00;99.90;;;;;;5095458;28;20442;-38
2022/04/03 04:25:05;;;;;;;4.03;2.00;;;-2.00;99.90;;;;;;5095259;28;20918;-38
2022/04/03 04:27:31;;;;;;;3.40;2.13;;;-2.00;99.90;;;;;;5095198;28;20755;-38
2022/04/03 04:29:57;;;;;;;6.07;2.10;;;-2.00;99.90;;;;;;5094977;28;20424;-42
2022/04/03 04:32:23;;;;;;;3.70;2.10;;;-2.00;99.90;;;;;;5094967;28;20249;-39
2022/04/03 04:34:50;;;;;;;3.93;2.50;;;-2.00;99.90;;;;;;5094837;28;20202;-42
2022/04/03 04:37:17;;;;;;;6.07;3.10;;;-2.00;99.90;;;;;;5094768;28;20433;-38
2022/04/03 04:39:43;;;;;;;7.27;4.10;;;-2.00;99.90;;;;;;5094573;28;20432;-39
2022/04/03 04:42:09;;;;;;;5.70;4.00;;;-2.00;99.90;;;;;;5095131;28;20412;-39
2022/04/03 04:44:34;;;;;;;10.50;4.57;;;-2.00;99.90;;;;;;5095011;28;20411;-40
2022/04/03 04:47:01;;;;;;;8.07;5.10;;;-2.00;99.90;;;;;;5095505;28;20193;-40
2022/04/03 04:49:27;;;;;;;8.87;5.40;;;-2.00;99.90;;;;;;5095453;28;20182;-40
2022/04/03 04:51:52;;;;;;;7.67;4.90;;;-2.00;99.90;;;;;;5094177;28;20413;-40
2022/04/03 04:54:18;;;;;;;5.40;4.13;;;-2.00;99.90;;;;;;5094526;28;20540;-40
2022/04/03 04:56:44;;;;;;;8.07;4.70;;;-2.00;99.90;;;;;;5094419;28;20572;-40
2022/04/03 04:59:10;;;;;;;8.10;4.53;;;-2.00;99.90;;;;;;5094662;28;20206;-39
2022/04/03 05:01:36;;;;;;;8.83;4.80;;;-1.90;99.90;;;;;;5094620;28;20517;-41
2022/04/03 05:04:02;;;;;;;10.07;4.30;;;-1.90;99.90;;;;;;5094261;28;20415;-40
2022/04/03 05:06:28;;;;;;;12.17;5.23;;;-1.90;99.90;;;;;;5094141;28;20216;-40
2022/04/03 05:08:54;;;;;;;7.17;4.43;;;-1.80;99.90;;;;;;5094126;28;20409;-41
2022/04/03 05:11:21;;;;;;;8.87;5.17;;;-1.80;99.90;;;;;;5094366;28;20769;-41
2022/04/03 05:13:49;;;;;;;6.60;4.70;;;-1.90;99.90;;;;;;5094379;28;20528;-39
2022/04/03 05:16:14;;;;;;;7.80;4.23;;;-1.90;99.90;;;;;;5094069;28;20469;-40
2022/04/03 05:18:40;;;;;;;5.50;4.17;;;-1.90;99.90;;;;;;5075927;28;20974;-39
2022/04/03 05:21:09;;;;;;;5.83;3.40;;;-1.90;99.90;;;;;;5094277;28;20226;-40
2022/04/03 05:23:35;;;;;;;6.47;4.10;;;-1.90;99.90;;;;;;5094027;28;20175;-39
2022/04/03 05:26:00;;;;;;;5.50;3.33;;;-1.90;99.90;;;;;;5094293;28;20445;-39
2022/04/03 05:28:26;;;;;;;4.17;3.33;;;-2.00;99.90;;;;;;5094270;28;20761;-39
2022/04/03 05:30:52;;;;;;;4.17;2.80;;;-2.00;99.90;;;;;;5094155;28;20170;-40
2022/04/03 05:33:18;;;;;;;3.60;2.57;;;-2.00;99.90;;;;;;5095411;28;20183;-40
2022/04/03 05:35:44;;;;;;;9.40;4.03;;;-2.10;99.90;;;;;;5094997;28;20222;-41
2022/04/03 05:38:10;;;;;;;5.47;3.50;;;-2.10;99.90;;;;;;5094822;28;20772;-41
2022/04/03 05:40:35;;;;;;;5.70;3.30;;;-2.10;99.90;;;;;;5094089;28;20267;-40
2022/04/03 05:43:01;;;;;;;5.57;3.37;;;-2.10;99.90;;;;;;5093615;28;20178;-40
2022/04/03 05:45:27;;;;;;;3.20;2.83;;;-2.10;99.90;;;;;;5094001;28;20206;-39
2022/04/03 05:47:53;;;;;;;4.60;3.00;;;-2.10;99.90;;;;;;5093612;28;20178;-40
2022/04/03 05:50:19;;;;;;;6.57;3.23;;;-2.00;99.90;;;;;;5075689;28;20485;-40
2022/04/03 05:52:47;;;;;;;5.07;2.77;;;-2.00;99.90;;;;;;5093495;28;20182;-40
2022/04/03 05:55:16;;;;;;;10.67;3.37;;;-2.00;99.90;;;;;;5093564;28;20230;-40
2022/04/03 05:57:43;;;;;;;6.67;3.63;;;-1.90;99.90;;;;;;5093721;28;20420;-42
2022/04/03 06:00:14;;;;;;;4.90;3.30;;;-1.90;99.90;;;;;;5093462;28;20412;-40
2022/04/03 06:02:46;;;;;;;5.77;2.90;;;-1.90;99.90;;;;;;5075565;28;20456;-40
2022/04/03 06:05:11;;;;;;;6.33;3.13;;;-1.90;99.90;;;;;;5093824;28;20431;-39
2022/04/03 06:07:37;;;;;;;6.97;3.47;;;-1.90;99.90;;;;;;5093370;28;20409;-41
2022/04/03 06:10:03;;;;;;;6.60;3.20;;;-1.90;99.90;;;;;;5093354;28;20171;-39
2022/04/03 06:12:29;;;;;;;6.43;3.00;;;-1.90;99.90;;;;;;5093329;28;20231;-41
2022/04/03 06:14:55;;;;;;;7.37;3.63;;;-1.80;99.90;;;;;;5116180;23;20483;-40
2022/04/03 06:17:20;;;;;;;7.77;3.80;;;-1.80;99.90;;;;;;5113646;28;20251;-40
2022/04/03 06:19:46;;;;;;;4.57;2.93;;;-1.80;99.90;;;;;;5113656;28;20180;-40
2022/04/03 06:22:11;;;;;;;4.57;3.40;;;-1.70;99.90;;;;;;5113664;28;20646;-40
2022/04/03 06:24:37;;;;;;;5.17;3.20;;;-1.70;99.90;;;;;;5095981;28;20184;-41
2022/04/03 06:27:03;;;;;;;6.47;3.67;;;-1.50;99.90;;;;;;5113495;28;20213;-40
2022/04/03 06:29:29;;;;;;;5.60;3.17;;;-1.40;99.90;;;;;;5114039;28;20200;-40
2022/04/03 06:31:54;;;;;;;6.23;3.30;;;-1.20;99.90;;;;;;5113512;28;20233;-40
2022/04/03 06:34:20;;;;;;;5.27;3.30;;;-1.00;99.90;;;;;;5113668;28;20176;-39
2022/04/03 06:36:45;;;;;;;5.40;3.33;;;-0.80;99.90;;;;;;5095138;28;20220;-40
2022/04/03 06:39:11;;;;;;;4.67;3.37;;;-0.60;99.90;;;;;;5095343;28;20204;-40
2022/04/03 06:41:37;;;;;;;5.93;3.50;;;-0.40;99.90;;;;;;5113912;28;20166;-40
2022/04/03 06:44:03;;;;;;;8.90;3.93;;;-0.20;99.90;;;;;;5113539;28;20173;-40
2022/04/03 06:46:29;;;;;;;6.00;3.43;;;-0.10;99.90;;;;;;5113838;28;20481;-39
2022/04/03 06:48:55;;;;;;;7.40;4.07;;;0.20;99.90;;;;;;5113928;28;20205;-39
2022/04/03 06:51:21;;;;;;;5.63;3.77;;;0.40;99.90;;;;;;5095483;28;20206;-40
2022/04/03 06:53:46;;;;;;;10.33;4.07;;;0.60;99.90;;;;;;5113706;28;20929;-40
2022/04/03 06:56:12;;;;;;;5.27;4.00;;;0.70;99.90;;;;;;5113339;28;20641;-41
2022/04/03 06:58:38;;;;;;;6.93;4.10;;;1.00;99.90;;;;;;5113890;28;20535;-41
2022/04/03 07:01:03;;;;;;;4.80;3.30;;;1.10;99.90;;;;;;5113988;28;20177;-41
2022/04/03 07:03:31;;;;;;;5.97;3.70;;;1.30;99.90;;;;;;5114146;28;20182;-41
2022/04/03 07:05:57;;;;;;;7.60;4.00;;;1.50;99.90;;;;;;5113659;28;20223;-41
2022/04/03 07:08:23;;;;;;;7.30;3.63;;;1.70;99.90;;;;;;5113481;28;20501;-39
2022/04/03 07:10:50;;;;;;;4.93;3.60;;;1.80;99.90;;;;;;5113575;28;20673;-40
2022/04/03 07:13:16;;;;;;;5.33;3.30;;;2.00;99.90;;;;;;5113852;28;20211;-41
2022/04/03 07:15:41;;;;;;;4.67;3.60;;;2.20;99.90;;;;;;5114975;28;20548;-42
2022/04/03 07:18:07;;;;;;;8.03;3.37;;;2.30;99.90;;;;;;5117380;28;20195;-41
2022/04/03 07:20:33;;;;;;;5.50;3.60;;;2.30;99.90;;;;;;5099458;28;20180;-41
2022/04/03 07:22:58;;;;;;;8.37;3.90;;;2.40;99.90;;;;;;5117505;28;20400;-41
2022/04/03 07:25:24;;;;;;;5.10;3.57;;;2.60;99.90;;;;;;5118345;28;20202;-40
2022/04/03 07:27:50;;;;;;;4.87;3.40;;;2.80;99.90;;;;;;5117258;28;20232;-40
2022/04/03 07:30:16;;;;;;;6.03;3.70;;;2.90;99.90;;;;;;5117010;28;20176;-40
2022/04/03 07:32:42;;;;;;;6.03;3.50;;;3.10;99.90;;;;;;5117538;28;20188;-40
2022/04/03 07:35:08;;;;;;;6.80;3.60;;;3.20;99.90;;;;;;5117312;28;20198;-39
2022/04/03 07:37:34;;;;;;;6.13;3.70;;;3.40;99.90;;;;;;5116871;28;20182;-40
2022/04/03 07:40:03;;;;;;;5.07;3.30;;;3.50;99.90;;;;;;5116319;28;20480;-39
2022/04/03 07:42:29;;;;;;;6.47;3.50;;;3.60;99.90;;;;;;5116410;28;20347;-39
2022/04/03 07:44:55;;;;;;;4.30;3.17;;;3.60;99.90;;;;;;5116431;28;20910;-40
2022/04/03 07:47:20;;;;;;;5.67;3.50;;;3.70;99.90;;;;;;5116274;28;20680;-42
2022/04/03 07:49:46;;;;;;;6.87;3.97;;;3.80;99.90;;;;;;5116302;28;20227;-41
2022/04/03 07:52:11;;;;;;;8.30;3.70;;;3.90;99.90;;;;;;5116119;28;20185;-41
2022/04/03 07:54:38;;;;;;;8.33;3.73;;;4.10;99.90;;;;;;5116190;28;20181;-41
2022/04/03 07:57:06;;;;;;;4.70;3.40;;;4.20;99.90;;;;;;5097643;28;20198;-41
2022/04/03 07:59:31;;;;;;;4.97;3.63;;;4.30;99.90;;;;;;5116121;28;20168;-40
2022/04/03 08:01:57;;;;;;;6.67;3.40;;;4.40;99.90;;;;;;5116093;28;20274;-42
2022/04/03 08:04:23;;;;;;;5.27;3.37;;;4.60;99.90;;;;;;5116288;28;20208;-41
2022/04/03 08:06:48;;;;;;;5.27;3.83;;;4.70;99.90;;;;;;5116346;28;20227;-39
2022/04/03 08:09:14;;;;;;;7.40;3.57;;;4.90;99.90;;;;;;5116302;28;20607;-39
2022/04/03 08:11:41;;;;;;;8.47;3.33;;;5.00;99.90;;;;;;5116128;28;20185;-41
2022/04/03 08:14:06;;;;;;;8.03;3.27;;;5.10;99.90;;;;;;5098193;28;20175;-40
2022/04/03 08:16:32;;;;;;;6.50;3.40;;;5.20;99.90;;;;;;5097386;28;20210;-41
2022/04/03 08:18:58;;;;;;;3.90;2.97;;;5.30;99.90;;;;;;5115931;28;20178;-40
2022/04/03 08:21:23;;;;;;;2.90;2.60;;;5.40;99.90;;;;;;5115667;28;20170;-42
2022/04/03 08:23:49;;;;;;;6.33;3.13;;;5.60;99.90;;;;;;5115776;28;20543;-42
2022/04/03 08:26:14;;;;;;;3.67;2.07;;;5.80;99.90;;;;;;5115650;28;20198;-43
2022/04/03 08:28:40;;;;;;;2.80;2.00;;;5.70;99.90;;;;;;5115584;28;20177;-40
2022/04/03 08:31:06;;;;;;;6.77;2.20;;;5.40;99.90;;;;;;5115496;28;20179;-42
2022/04/03 08:33:32;;;;;;;3.90;2.30;;;5.10;99.90;;;;;;5115364;28;20212;-42
2022/04/03 08:35:57;;;;;;;4.00;2.03;;;5.00;99.90;;;;;;5115235;28;20832;-41
2022/04/03 08:38:23;;;;;;;4.03;2.07;;;5.00;99.90;;;;;;5115398;28;20173;-41
2022/04/03 08:40:49;;;;;;;4.10;2.07;;;4.90;99.90;;;;;;5115544;28;20245;-41
2022/04/03 08:43:15;;;;;;;3.37;2.20;;;4.90;99.90;;;;;;5115167;28;20205;-43
2022/04/03 08:45:40;;;;;;;2.87;2.13;;;4.90;99.90;;;;;;5114983;28;20224;-42
2022/04/03 08:48:08;;;;;;;4.90;2.27;;;5.00;99.90;;;;;;5115457;28;20180;-42
2022/04/03 08:50:36;;;;;;;4.53;2.20;;;5.30;99.90;;;;;;5097260;28;20181;-41
2022/04/03 08:53:04;;;;;;;2.10;1.90;;;5.40;99.90;;;;;;5115219;28;20687;-42
2022/04/03 08:55:31;;;;;;;4.40;2.23;;;5.70;99.90;;;;;;5115137;28;20266;-43
2022/04/03 08:57:57;;;;;;;3.27;2.20;;;6.10;99.90;;;;;;5115172;28;20184;-41
2022/04/03 09:00:23;;;;;;;5.23;2.07;;;6.10;99.90;;;;;;5115195;28;20303;-43
2022/04/03 09:02:52;;;;;;;3.73;2.00;;;6.10;99.90;;;;;;5096705;28;20162;-41
2022/04/03 09:05:19;;;;;;;3.90;2.30;;;6.30;99.90;;;;;;5115164;28;20211;-42
2022/04/03 09:07:59;;;;;;;2.83;2.00;;;6.40;99.90;;;;;;5114995;28;20158;-41
2022/04/03 09:10:24;;;;;;;3.07;1.87;;;6.40;99.90;;;;;;5115111;28;20169;-44
2022/04/03 09:12:51;;;;;;;2.93;1.97;;;6.40;99.90;;;;;;5115450;28;20578;-43
2022/04/03 09:15:19;;;;;;;3.37;1.80;;;6.30;99.90;;;;;;5114371;28;20218;-43
2022/04/03 09:17:56;;;;;;;3.43;1.77;;;6.10;99.90;;;;;;5114544;28;20212;-41
2022/04/03 09:20:24;;;;;;;4.13;1.73;;;6.10;99.90;;;;;;5114920;28;20188;-42
2022/04/03 09:22:52;;;;;;;4.03;2.40;;;6.20;99.90;;;;;;5114599;28;20174;-42
2022/04/03 09:25:25;;;;;;;2.13;1.70;;;6.20;99.90;;;;;;5114562;28;20231;-43
2022/04/03 09:27:54;;;;;;;2.30;1.70;;;6.20;99.90;;;;;;5114959;28;20204;-42
2022/04/03 09:30:23;;;;;;;2.60;1.60;;;6.20;99.90;;;;;;5096252;28;20174;-43
2022/04/03 09:32:54;;;;;;;3.07;1.97;;;6.10;99.90;;;;;;5114529;28;20253;-43
2022/04/03 09:35:24;;;;;;;3.80;1.70;;;6.10;99.90;;;;;;5114467;28;20202;-45
2022/04/03 09:38:13;;;;;;;3.87;2.17;;;6.00;99.90;;;;;;5079359;28;20173;-41
2022/04/03 09:40:46;;;;;;;4.37;2.90;;;6.10;99.90;;;;;;5114245;28;20171;-43
2022/04/03 09:43:24;;;;;;;2.40;1.87;;;6.10;99.90;;;;;;5114567;28;20165;-42
2022/04/03 09:45:59;;;;;;;2.93;1.73;;;6.20;99.90;;;;;;5114337;28;20228;-41
2022/04/03 09:48:39;;;;;;;4.10;3.37;;;6.30;99.90;;;;;;5114564;28;20163;-42
2022/04/03 09:51:19;;;;;;;6.10;4.73;;;6.30;99.90;;;;;;5096021;28;20207;-43
2022/04/03 09:54:00;;;;;;;2.80;1.80;;;6.40;99.90;;;;;;5114411;28;20172;-43
2022/04/03 09:56:31;;;;;;;5.53;3.13;;;6.60;99.90;;;;;;5113916;28;20295;-41
2022/04/03 09:59:08;;;;;;;7.40;6.70;;;6.80;99.90;;;;;;5114928;28;20180;-42
2022/04/03 10:01:41;;;;;;;3.07;2.50;;;6.80;99.90;;;;;;5095832;28;20180;-50
2022/04/03 10:04:08;;;;;;;4.73;4.23;;;6.90;99.90;;;;;;5114242;28;20207;-49
2022/04/03 10:06:35;;;;;;;8.33;5.80;;;6.90;99.90;;;;;;5095729;28;20200;-47
2022/04/03 10:09:02;;;;;;;3.37;3.00;;;6.90;99.90;;;;;;5113812;28;20187;-49
2022/04/03 10:11:31;;;;;;;2.03;1.50;;;6.90;99.90;;;;;;5095756;28;20268;-48
2022/04/03 10:13:57;;;;;;;6.30;1.70;;;7.10;99.90;;;;;;5114210;28;20185;-48
2022/04/03 10:16:24;;;;;;;2.60;1.43;;;7.30;99.90;;;;;;5113527;28;20209;-49
2022/04/03 10:18:50;;;;;;;2.93;2.10;;;7.50;99.90;;;;;;5113964;28;20170;-50
2022/04/03 10:21:19;;;;;;;2.07;1.87;;;7.60;99.90;;;;;;5113641;28;20174;-49
2022/04/03 10:23:46;;;;;;;3.70;1.87;;;7.50;99.90;;;;;;5113814;28;20545;-47
2022/04/03 10:26:17;;;;;;;3.90;1.80;;;7.50;99.90;;;;;;5113863;28;20278;-47
2022/04/03 10:28:54;;;;;;;2.87;1.40;;;7.50;99.90;;;;;;5113675;28;20211;-48
2022/04/03 10:31:20;;;;;;;4.67;1.70;;;7.50;99.90;;;;;;5113936;28;20170;-50
2022/04/03 10:33:51;;;;;;;2.60;1.40;;;7.50;99.90;;;;;;5113551;28;20319;-49
2022/04/03 10:36:27;;;;;;;2.17;1.40;;;7.50;99.90;;;;;;5113901;28;20210;-49
2022/04/03 10:39:10;;;;;;;3.53;1.50;;;7.40;99.90;;;;;;5113788;28;20201;-49
2022/04/03 10:41:40;;;;;;;1.33;1.23;;;7.30;99.90;;;;;;5114176;28;20194;-48
2022/04/03 10:44:15;;;;;;;2.20;1.90;;;7.40;99.90;;;;;;5095180;28;20231;-49
2022/04/03 10:47:05;;;;;;;4.43;1.37;;;7.40;99.90;;;;;;5113745;28;20233;-49
2022/04/03 10:49:59;;;;;;;2.23;1.57;;;7.40;99.90;;;;;;5113527;28;20182;-48
2022/04/03 10:52:36;;;;;;;3.57;1.40;;;7.50;99.90;;;;;;5099144;28;20174;-49
2022/04/03 10:55:20;;;;;;;1.50;1.37;;;7.60;99.90;;;;;;5117674;28;20207;-49
2022/04/03 10:57:51;;;;;;;2.30;1.43;;;7.70;99.90;;;;;;5117273;28;20154;-48
2022/04/03 11:00:17;;;;;;;2.23;1.83;;;7.60;99.90;;;;;;5117255;28;20681;-48
2022/04/03 11:03:00;;;;;;;5.47;1.80;;;7.60;99.90;;;;;;5117458;28;20182;-48
2022/04/03 11:05:26;;;;;;;4.63;1.77;;;7.60;99.90;;;;;;5117185;28;20255;-48
2022/04/03 11:08:02;;;;;;;2.33;1.33;;;7.70;99.90;;;;;;5098642;28;20182;-50
2022/04/03 11:10:54;;;;;;;1.63;0.90;;;7.80;99.90;;;;;;5116932;28;20161;-49
2022/04/03 11:13:32;;;;;;;3.17;1.17;;;7.90;99.90;;;;;;5082645;28;20611;-47
2022/04/03 11:16:06;;;;;;;2.73;1.50;;;8.10;99.90;;;;;;5116602;28;20206;-49
2022/04/03 11:18:49;;;;;;;2.37;1.17;;;8.00;99.90;;;;;;5098456;28;20179;-50
2022/04/03 11:21:22;;;;;;;3.43;1.40;;;7.90;99.90;;;;;;5117059;28;20151;-49
2022/04/03 11:24:07;;;;;;;3.40;1.67;;;7.90;99.90;;;;;;5116687;28;20238;-49
2022/04/03 11:26:34;;;;;;;2.20;1.20;;;7.90;99.90;;;;;;5098161;28;20197;-48
2022/04/03 11:29:00;;;;;;;4.13;1.20;;;7.70;99.90;;;;;;5116770;28;20185;-47
2022/04/03 11:31:27;;;;;;;2.40;1.40;;;7.90;99.90;;;;;;5116410;28;20182;-48
2022/04/03 11:33:53;;;;;;;2.03;1.53;;;7.90;99.90;;;;;;5116687;28;20629;-48
2022/04/03 11:36:30;;;;;;;2.30;1.70;;;8.10;99.90;;;;;;5116557;28;20214;-47
2022/04/03 11:38:59;;;;;;;2.27;1.60;;;8.10;99.90;;;;;;5116437;28;20169;-48
2022/04/03 11:41:34;;;;;;;3.83;1.50;;;8.10;99.90;;;;;;5098084;28;20185;-48
2022/04/03 11:44:17;;;;;;;1.97;1.30;;;8.20;99.90;;;;;;5116523;28;20533;-48
2022/04/03 11:46:48;;;;;;;2.33;1.40;;;8.20;99.90;;;;;;5116152;28;20610;-46
2022/04/03 11:49:21;;;;;;;1.93;1.10;;;8.50;99.90;;;;;;5116448;28;20181;-48
2022/04/03 11:51:52;;;;;;;2.60;1.20;;;8.60;99.90;;;;;;5116083;28;20205;-48
2022/04/03 11:54:18;;;;;;;3.27;1.63;;;8.90;99.90;;;;;;5116421;28;20190;-48
2022/04/03 11:56:44;;;;;;;3.43;1.40;;;9.20;99.90;;;;;;5116498;28;20242;-48
2022/04/03 11:59:10;;;;;;;2.43;1.60;;;9.30;99.90;;;;;;5116534;28;20177;-48
2022/04/03 12:01:40;;;;;;;4.63;1.50;;;9.10;99.90;;;;;;5115558;28;20193;-48
2022/04/03 12:04:08;;;;;;;3.97;2.60;;;9.00;99.90;;;;;;5116271;28;20154;-48
2022/04/03 12:06:39;;;;;;;2.00;1.37;;;9.00;99.90;;;;;;5097556;28;20201;-48
2022/04/03 12:09:09;;;;;;;3.13;1.23;;;8.80;99.90;;;;;;5116188;28;20514;-47
2022/04/03 12:11:35;;;;;;;1.73;1.20;;;8.80;99.90;;;;;;5098086;28;20178;-48
2022/04/03 12:14:03;;;;;;;2.90;1.20;;;8.80;99.90;;;;;;5115803;28;20186;-49
2022/04/03 12:16:32;;;;;;;1.70;1.10;;;8.70;99.90;;;;;;5098016;28;20210;-47
2022/04/03 12:19:00;;;;;;;1.53;1.10;;;8.70;99.90;;;;;;5116237;28;20169;-49
2022/04/03 12:21:51;;;;;;;2.57;0.97;;;8.90;99.90;;;;;;5115640;28;20649;-50
2022/04/03 12:24:22;;;;;;;2.63;1.60;;;9.10;99.90;;;;;;5115863;28;20208;-50
2022/04/03 12:26:52;;;;;;;2.87;0.90;;;9.20;99.90;;;;;;5097645;28;20190;-48
2022/04/03 12:29:19;;;;;;;3.20;1.17;;;9.10;99.90;;;;;;5119169;22;20227;-44
2022/04/03 12:32:00;;;;;;;2.80;1.00;;;9.00;99.90;;;;;;5095263;28;20179;-45
2022/04/03 12:34:27;;;;;;;2.77;1.00;;;8.80;99.90;;;;;;5095299;28;20170;-46
2022/04/03 12:36:54;;;;;;;2.07;0.90;;;8.70;99.90;;;;;;5095021;28;20215;-46
2022/04/03 12:39:31;;;;;;;1.80;1.00;;;8.80;99.90;;;;;;5095155;28;20167;-47
2022/04/03 12:42:09;;;;;;;1.87;0.90;;;9.00;99.90;;;;;;5095088;28;20205;-47
2022/04/03 12:45:06;;;;;;;1.13;0.93;;;9.30;99.90;;;;;;5095672;28;20573;-47
2022/04/03 12:47:42;;;;;;;0.90;0.90;;;9.60;99.90;;;;;;5074878;28;20190;-47
2022/04/03 12:50:20;;;;;;;1.97;1.17;;;9.70;99.90;;;;;;5095069;28;20575;-48
2022/04/03 12:52:52;;;;;;;4.00;1.10;;;9.60;99.90;;;;;;5094963;28;20159;-46
2022/04/03 12:55:23;;;;;;;5.87;1.60;;;9.50;99.90;;;;;;5094418;28;20207;-44
2022/04/03 13:00:57;;;;;;;1.73;1.20;;;9.80;99.90;;;;;;5094748;28;20537;-46